ADDS TAF Board (Experimental) INFO Settings

IDs: Format: Expanded Condensed

KCLE - Cleveland/Hopkins In, OH, US

Issued at 2328 UTC 18 Apr 2015
Updated at: 0106 UTC 19 Apr 2015
Time0051Z 19/02Z 19/03Z 19/04Z 19/05Z 19/06Z 19/07Z 19/08Z 19/09Z 19/10Z 19/11Z 19/12Z 19/13Z 19/14Z
Type OBS PRVL PRVL PRVL PRVL PRVL PRVL PRVL PRVL PRVL PRVL PRVL PRVL PRVL
VIS 10 >6 >6 >6 >6 >6 >6 >6 >6 >6 >6 >6 >6 >6
CIG 250 200 200 200 200 200 200 200 200 200 200 200 200 120
Cover OVC BKN BKN BKN BKN BKN BKN BKN BKN BKN BKN BKN BKN BKN
FltCat VFR VFR VFR VFR VFR VFR VFR VFR VFR VFR VFR VFR VFR VFR
WX -- -- -- -- -- -- -- -- -- -- -- -- -- --
WDir 30 40 40 40 40 40 40 40 40 40 40 40 40 100
WSpd 9 9 9 9 9 9 9 9 9 9 9 9 9 12
WGst -- -- -- -- -- -- -- -- -- -- -- -- -- 18
R06/24
XWnd 3 2 2 2 2 2 2 2 2 2 2 2 2 -9
XGst -- -- -- -- -- -- -- -- -- -- -- -- -- -14
HWnd 8 9 9 9 9 9 9 9 9 9 9 9 9 8
HGst -- -- -- -- -- -- -- -- -- -- -- -- -- 12
R10/28
XWnd 8 7 7 7 7 7 7 7 7 7 7 7 7 -1
XGst -- -- -- -- -- -- -- -- -- -- -- -- -- -2
HWnd 4 5 5 5 5 5 5 5 5 5 5 5 5 12
HGst -- -- -- -- -- -- -- -- -- -- -- -- -- 18

NOTE: TEMPO conditions in [brackets]. Keep in mind TEMPO conditions might be better (lower impact) than prevailing conditions.

Raw TAF
KCLE 182328Z 1900/2006 04009KT P6SM BKN200
  FM191400 10012G18KT P6SM BKN120
  FM191900 11015G25KT 6SM -SHRA BKN060 OVC100
  FM192100 12016G26KT 4SM -SHRA BR BKN020 OVC050
  FM192300 12016G26KT 3SM -SHRA BR BKN010 OVC025
  FM200500 18016G26KT 3SM -SHRA BR BKN010 OVC025


Raw METAR
KCLE 190051Z 03009KT 10SM OVC250 13/M01 A3011 RMK AO2 SLP194 T01281006
KCLE 182351Z 02006KT 10SM BKN250 15/M01 A3011 RMK AO2 SLP196 T01501006 10211 20150 53001
KCLE 182251Z 01010KT 10SM BKN250 17/M01 A3010 RMK AO2 SLP192 T01721006

METAR Board
Radar Display
Forecast Discussion

TAF Board Legend

Potential Impact
Threat None Slight Moderate High
Visibility (sm) ≥5.1 5.1>X≥3 3>X≥1 <1
Ceiling (100 ft) ≥30.1 30.1>X≥10 10>X≥5 <5
Wind Speed (kt) <10 10≤X<20 20≤X<30 ≥30
Wind Gust (kt) <15 15≤X<25 25≤X<35 ≥35
Weather No Wx Reported VCTS,-TS,-FZRA,SN TS,FZRA +TS,+FZRA,+SN